Farrar, Iowa
Current Conditions -  °F | °C
As of 5:55 PM on Monday 20 Oct 2014 (Local Time) from KIKV Reporting Station
Clear Clear  
Wind Chill: 68°   Ceiling: Unl
Heat Index: 68°   Visibility: 10mi
Dew Point: 39°   Wind: 8mph
Humidity: 35%   Direction: 330°NNW
Pressure: 30"   Gusts: NA
Location:  41.8542°N, 93.4051°W
Report Text: KIKV 202255Z AUTO 33007KT 10SM CLR 20/04 A3000 RMK AO2
Loading
Personal Weather Stations






























Interactive Weather Map
Tropical Storm Tracking
New forecast layout! Learn more

10-Day Weather Forecast

Advertisements
Track Severe Weather on mobile